createdAt,value
2019-02-27T00:01:41.917Z,24.07
2019-02-27T00:04:13.223Z,24.37
2019-02-27T00:06:47.685Z,24.27
2019-02-27T00:09:17.527Z,24.23
2019-02-27T00:11:49.249Z,24.37
2019-02-27T00:14:20.505Z,23.80
2019-02-27T00:16:52.257Z,25.23
2019-02-27T00:19:23.607Z,24.17
2019-02-27T00:21:55.053Z,25.10
2019-02-27T00:24:27.039Z,25.30
2019-02-27T00:27:00.325Z,25.47
2019-02-27T00:29:31.561Z,25.50
2019-02-27T00:32:03.021Z,24.87
2019-02-27T00:34:35.487Z,25.60
2019-02-27T00:37:06.916Z,23.27
2019-02-27T00:39:38.225Z,25.47
2019-02-27T00:42:09.661Z,25.97
2019-02-27T00:44:41.057Z,25.80
2019-02-27T00:47:12.644Z,25.83
2019-02-27T00:49:43.855Z,26.53
2019-02-27T00:52:18.023Z,25.37
2019-02-27T00:54:48.155Z,26.33
2019-02-27T00:57:20.804Z,25.90
2019-02-27T00:59:52.337Z,25.77
2019-02-27T01:02:23.709Z,26.20
2019-02-27T01:04:55.340Z,26.20
2019-02-27T01:07:26.745Z,24.60
2019-02-27T01:09:57.999Z,25.20
2019-02-27T01:12:29.417Z,24.83
2019-02-27T01:15:00.643Z,24.90
2019-02-27T01:17:32.527Z,24.27
2019-02-27T01:20:03.768Z,24.57
2019-02-27T01:22:36.458Z,25.47
2019-02-27T01:25:07.724Z,24.47
2019-02-27T01:27:39.252Z,25.50
2019-02-27T01:30:11.891Z,25.30
2019-02-27T01:32:43.395Z,25.00
2019-02-27T01:35:17.793Z,24.67
2019-02-27T01:37:47.881Z,23.97
2019-02-27T01:40:19.097Z,25.27
2019-02-27T01:42:50.629Z,24.20
2019-02-27T01:45:21.948Z,25.17
2019-02-27T01:47:53.447Z,25.87
2019-02-27T01:50:32.874Z,26.43
2019-02-27T01:53:07.124Z,25.90
2019-02-27T01:55:37.561Z,25.57
2019-02-27T01:58:09.577Z,24.90
2019-02-27T02:00:41.799Z,24.73
2019-02-27T02:03:13.756Z,24.73
2019-02-27T02:05:46.825Z,24.93
2019-02-27T02:08:18.363Z,24.60
2019-02-27T02:10:49.642Z,24.67
2019-02-27T02:13:35.088Z,25.10
2019-02-27T02:16:19.215Z,26.43
2019-02-27T02:19:18.998Z,23.43
2019-02-27T02:22:33.274Z,26.27
2019-02-27T02:25:46.362Z,24.90
2019-02-27T02:29:00.375Z,25.23
2019-02-27T02:31:42.499Z,23.77
2019-02-27T02:35:04.838Z,24.50
2019-02-27T02:38:11.996Z,24.93
2019-02-27T02:41:23.582Z,23.90
2019-02-27T02:44:26.621Z,24.43
2019-02-27T02:47:42.074Z,24.50
2019-02-27T02:50:42.229Z,25.33
2019-02-27T02:53:51.145Z,24.00
2019-02-27T02:56:37.869Z,24.90
2019-02-27T02:59:45.953Z,26.23
2019-02-27T03:02:52.352Z,26.13
2019-02-27T03:06:16.415Z,23.70
2019-02-27T03:09:18.446Z,24.83
2019-02-27T03:12:33.617Z,24.70
2019-02-27T03:15:42.282Z,23.93
2019-02-27T03:18:58.140Z,24.67
2019-02-27T03:22:03.555Z,25.70
2019-02-27T03:25:27.109Z,25.27
2019-02-27T03:28:40.684Z,23.57
2019-02-27T03:31:20.778Z,25.00
2019-02-27T03:34:26.672Z,23.80
2019-02-27T03:37:27.897Z,23.80
2019-02-27T03:40:48.114Z,24.10
2019-02-27T03:44:02.595Z,24.47
2019-02-27T03:47:05.160Z,24.53
2019-02-27T03:50:16.862Z,22.77
2019-02-27T03:53:32.597Z,24.67
2019-02-27T03:56:45.580Z,24.93
2019-02-27T03:59:59.716Z,22.93
2019-02-27T04:03:04.580Z,23.20
2019-02-27T04:05:59.747Z,22.23
2019-02-27T04:08:55.664Z,23.13
2019-02-27T04:11:27.405Z,25.30
2019-02-27T04:14:04.974Z,24.63
2019-02-27T04:16:33.534Z,25.13
2019-02-27T04:19:05.137Z,26.70
2019-02-27T04:21:36.603Z,24.33
2019-02-27T04:24:07.923Z,24.43
2019-02-27T04:26:41.917Z,26.20
2019-02-27T04:29:12.201Z,23.63
2019-02-27T04:31:43.576Z,25.30
2019-02-27T04:34:14.805Z,24.43
2019-02-27T04:36:47.210Z,24.83
2019-02-27T04:39:19.138Z,23.50
2019-02-27T04:41:51.975Z,25.10
2019-02-27T04:44:23.843Z,24.63
2019-02-27T04:46:55.651Z,24.13
2019-02-27T04:49:27.062Z,24.13
2019-02-27T04:51:58.566Z,23.57
2019-02-27T04:54:29.759Z,23.97
2019-02-27T04:57:01.263Z,26.80
2019-02-27T04:59:33.725Z,25.40
2019-02-27T05:02:05.491Z,28.20
2019-02-27T05:04:37.013Z,25.90
2019-02-27T05:07:08.517Z,26.30
2019-02-27T05:09:39.714Z,25.37
2019-02-27T05:12:11.210Z,26.33
2019-02-27T05:14:42.557Z,25.90
2019-02-27T05:17:14.101Z,28.83
2019-02-27T05:19:45.290Z,27.10
2019-02-27T05:22:16.607Z,24.40
2019-02-27T05:24:47.863Z,25.57
2019-02-27T05:27:19.403Z,25.57
2019-02-27T05:29:50.665Z,23.60
2019-02-27T05:32:33.515Z,23.73
2019-02-27T05:35:04.825Z,23.87
2019-02-27T05:37:38.578Z,24.53
2019-02-27T05:40:09.529Z,24.50
2019-02-27T05:42:41.033Z,25.87
2019-02-27T05:45:13.294Z,24.70
2019-02-27T05:47:45.833Z,23.80
2019-02-27T05:50:18.369Z,24.70
2019-02-27T05:52:49.793Z,24.50
2019-02-27T05:55:20.965Z,23.70
2019-02-27T05:57:52.380Z,25.90
2019-02-27T06:00:23.595Z,24.77
2019-02-27T06:02:56.797Z,25.73
2019-02-27T06:05:28.111Z,26.90
2019-02-27T06:08:02.058Z,24.80
2019-02-27T06:10:32.640Z,28.00
2019-02-27T06:13:04.184Z,28.20
2019-02-27T06:15:35.449Z,27.80
2019-02-27T06:18:06.981Z,27.93
2019-02-27T06:20:38.978Z,27.87
2019-02-27T06:23:11.250Z,26.33
2019-02-27T06:25:42.322Z,25.83
2019-02-27T06:28:13.677Z,25.70
2019-02-27T06:30:44.848Z,26.70
2019-02-27T06:33:16.356Z,27.80
2019-02-27T06:35:49.333Z,28.10
2019-02-27T06:38:20.489Z,27.17
2019-02-27T06:40:51.604Z,26.43
2019-02-27T06:43:27.181Z,26.87
2019-02-27T06:45:55.961Z,26.53
2019-02-27T06:48:27.322Z,28.30
2019-02-27T06:51:00.914Z,25.23
2019-02-27T06:53:31.686Z,24.77
2019-02-27T06:56:03.475Z,26.83
2019-02-27T06:58:35.589Z,26.23
2019-02-27T07:01:09.270Z,27.73
2019-02-27T07:03:40.024Z,27.47
2019-02-27T07:06:11.144Z,27.90
2019-02-27T07:08:42.622Z,26.33
2019-02-27T07:11:13.684Z,25.67
2019-02-27T07:13:47.980Z,28.10
2019-02-27T07:16:20.534Z,27.87
2019-02-27T07:18:52.112Z,25.83
2019-02-27T07:21:23.242Z,27.00
2019-02-27T07:23:57.585Z,26.30
2019-02-27T07:26:27.401Z,26.60
2019-02-27T07:28:58.745Z,27.17
2019-02-27T07:31:29.831Z,29.60
2019-02-27T07:34:01.136Z,28.37
2019-02-27T07:36:32.284Z,28.27
2019-02-27T07:39:05.274Z,28.33
2019-02-27T07:41:37.461Z,29.10
2019-02-27T07:44:08.790Z,29.53
2019-02-27T07:46:40.011Z,28.70
2019-02-27T07:49:11.617Z,29.03
2019-02-27T07:51:43.092Z,29.87
2019-02-27T07:54:14.486Z,28.37
2019-02-27T07:56:45.580Z,28.43
2019-02-27T07:59:18.507Z,28.37
2019-02-27T08:01:49.812Z,29.53
2019-02-27T08:04:23.008Z,31.50
2019-02-27T08:06:53.900Z,31.10
2019-02-27T08:09:29.937Z,29.47
2019-02-27T08:11:58.158Z,29.07
2019-02-27T08:14:29.383Z,30.53
2019-02-27T08:17:02.504Z,31.27
2019-02-27T08:19:33.928Z,32.00
2019-02-27T08:22:04.992Z,31.00
2019-02-27T08:24:36.324Z,29.70
2019-02-27T08:27:09.620Z,28.30
2019-02-27T08:29:40.546Z,30.90
2019-02-27T08:32:11.603Z,31.37
2019-02-27T08:34:42.845Z,30.67
2019-02-27T08:37:13.930Z,32.10
2019-02-27T08:39:46.400Z,31.13
2019-02-27T08:42:17.560Z,32.97
2019-02-27T08:44:49.264Z,30.60
2019-02-27T08:47:20.385Z,31.83
2019-02-27T08:49:51.770Z,31.30
2019-02-27T08:52:22.816Z,32.37
2019-02-27T08:54:54.163Z,33.00
2019-02-27T08:57:25.263Z,32.80
2019-02-27T08:59:56.544Z,34.93
2019-02-27T09:02:29.483Z,30.83
2019-02-27T09:05:00.787Z,32.20
2019-02-27T09:07:33.928Z,31.30
2019-02-27T09:10:05.106Z,32.00
2019-02-27T09:12:36.305Z,31.53
2019-02-27T09:15:07.912Z,32.43
2019-02-27T09:17:39.352Z,30.80
2019-02-27T09:20:12.662Z,32.63
2019-02-27T09:22:43.704Z,33.47
2019-02-27T09:25:15.362Z,34.33
2019-02-27T09:27:46.408Z,33.90
2019-02-27T09:30:17.861Z,33.00
2019-02-27T09:32:49.090Z,32.93
2019-02-27T09:35:20.374Z,32.47
2019-02-27T09:37:52.041Z,31.30
2019-02-27T09:40:23.668Z,31.37
2019-02-27T09:42:54.924Z,33.10
2019-02-27T09:45:28.256Z,32.07
2019-02-27T09:48:00.557Z,32.33
2019-02-27T09:50:39.928Z,29.77
2019-02-27T09:53:11.334Z,31.97
2019-02-27T09:55:42.650Z,29.90
2019-02-27T09:58:13.823Z,31.87
2019-02-27T10:00:47.283Z,31.10
2019-02-27T10:03:21.117Z,30.00
2019-02-27T10:05:51.698Z,30.53
2019-02-27T10:08:25.280Z,28.57
2019-02-27T10:10:55.670Z,28.43
2019-02-27T10:13:26.813Z,27.80
2019-02-27T10:16:01.382Z,26.37
2019-02-27T10:18:31.036Z,25.47
2019-02-27T10:21:02.357Z,26.70
2019-02-27T10:23:33.562Z,25.63
2019-02-27T10:26:04.844Z,27.30
2019-02-27T10:28:39.611Z,26.27
2019-02-27T10:31:08.880Z,25.60
2019-02-27T10:33:42.826Z,26.13
2019-02-27T10:36:13.126Z,25.60
2019-02-27T10:38:45.517Z,25.50
2019-02-27T10:41:16.950Z,26.00
2019-02-27T10:43:48.223Z,25.13
2019-02-27T10:46:23.449Z,25.07
2019-02-27T10:48:52.666Z,25.37
2019-02-27T10:51:24.078Z,25.00
2019-02-27T10:53:55.157Z,25.13
2019-02-27T10:56:26.478Z,26.03
2019-02-27T10:58:57.612Z,23.87
2019-02-27T11:01:28.974Z,23.47
2019-02-27T11:04:00.570Z,22.47
2019-02-27T11:06:37.728Z,21.77
2019-02-27T11:09:27.172Z,22.40
2019-02-27T11:11:58.853Z,21.67
2019-02-27T11:14:32.046Z,20.00
2019-02-27T11:17:03.447Z,20.93
2019-02-27T11:19:35.095Z,20.00
2019-02-27T11:22:06.488Z,20.13
2019-02-27T11:24:37.665Z,20.47
2019-02-27T11:27:10.116Z,19.10
2019-02-27T11:29:41.224Z,18.70
2019-02-27T11:32:12.496Z,17.63
2019-02-27T11:34:45.618Z,17.73
2019-02-27T11:37:17.864Z,17.50
2019-02-27T11:39:49.246Z,17.87
2019-02-27T11:42:20.590Z,16.90
2019-02-27T11:44:51.774Z,17.27
2019-02-27T11:47:23.054Z,16.90
2019-02-27T11:49:54.202Z,16.17
2019-02-27T11:52:28.659Z,14.63
2019-02-27T11:54:58.360Z,14.00
2019-02-27T11:57:30.545Z,13.33
2019-02-27T12:00:03.517Z,13.03
2019-02-27T12:02:37.867Z,12.80
2019-02-27T12:05:11.456Z,13.13
2019-02-27T12:07:42.883Z,11.97
2019-02-27T12:10:16.561Z,12.50
2019-02-27T12:12:47.930Z,12.13
2019-02-27T12:15:19.473Z,11.70
2019-02-27T12:17:50.982Z,11.10
2019-02-27T12:20:22.920Z,10.40
2019-02-27T12:22:54.238Z,11.27
2019-02-27T12:25:29.119Z,10.67
2019-02-27T12:27:58.283Z,11.53
2019-02-27T12:30:29.526Z,11.57
2019-02-27T12:33:00.894Z,10.77
2019-02-27T12:35:32.116Z,9.90
2019-02-27T12:38:07.151Z,10.57
2019-02-27T12:40:36.860Z,9.90
2019-02-27T12:43:10.078Z,9.73
2019-02-27T12:45:41.160Z,11.13
2019-02-27T12:48:13.281Z,10.73
2019-02-27T12:50:44.654Z,11.10
2019-02-27T12:53:20.672Z,11.63
2019-02-27T12:55:48.848Z,12.40
2019-02-27T12:58:20.266Z,11.50
2019-02-27T13:00:51.344Z,10.77
2019-02-27T13:03:22.932Z,11.50
2019-02-27T13:05:54.052Z,12.53
2019-02-27T13:08:26.424Z,10.40
2019-02-27T13:10:58.132Z,10.00
2019-02-27T13:13:29.590Z,11.70
2019-02-27T13:16:00.814Z,10.70
2019-02-27T13:18:32.731Z,9.83
2019-02-27T13:21:03.937Z,11.37
2019-02-27T13:23:36.398Z,12.57
2019-02-27T13:26:08.143Z,12.00
2019-02-27T13:28:39.464Z,12.07
2019-02-27T13:31:10.548Z,11.90
2019-02-27T13:33:41.861Z,11.10
2019-02-27T13:36:13.050Z,10.70
2019-02-27T13:38:45.389Z,9.30
2019-02-27T13:41:17.754Z,9.70
2019-02-27T13:43:49.097Z,9.13
2019-02-27T13:46:22.601Z,7.93
2019-02-27T13:48:53.230Z,8.37
2019-02-27T13:51:24.362Z,8.83
2019-02-27T13:54:00.310Z,8.10
2019-02-27T13:56:28.531Z,7.70
2019-02-27T13:58:59.963Z,7.87
2019-02-27T14:01:31.098Z,7.57
2019-02-27T14:04:02.452Z,7.40
2019-02-27T14:06:33.584Z,7.97
2019-02-27T14:09:07.052Z,7.10
2019-02-27T14:11:40.332Z,6.73
2019-02-27T14:14:15.074Z,5.90
2019-02-27T14:16:45.920Z,6.40
2019-02-27T14:19:17.212Z,6.53
2019-02-27T14:21:48.264Z,6.67
2019-02-27T14:24:20.609Z,6.40
2019-02-27T14:26:52.450Z,6.30
2019-02-27T14:29:26.083Z,6.53
2019-02-27T14:31:56.616Z,6.83
2019-02-27T14:34:36.978Z,6.40
2019-02-27T14:37:08.053Z,6.10
2019-02-27T14:39:39.480Z,6.30
2019-02-27T14:42:10.603Z,5.77
2019-02-27T14:44:42.170Z,6.10
2019-02-27T14:47:16.353Z,5.50
2019-02-27T14:49:46.612Z,4.90
2019-02-27T14:52:17.670Z,5.23
2019-02-27T14:54:49.098Z,4.97
2019-02-27T14:57:20.260Z,5.03
2019-02-27T14:59:51.596Z,5.10
2019-02-27T15:02:23.013Z,4.37
2019-02-27T15:04:54.602Z,4.60
2019-02-27T15:07:25.753Z,4.40
2019-02-27T15:09:57.215Z,4.57
2019-02-27T15:12:28.387Z,4.33
2019-02-27T15:14:59.810Z,3.93
2019-02-27T15:17:32.640Z,4.03
2019-02-27T15:20:05.587Z,4.30
2019-02-27T15:22:37.835Z,4.50
2019-02-27T15:25:10.993Z,4.17
2019-02-27T15:27:42.279Z,4.00
2019-02-27T15:30:16.312Z,4.73
2019-02-27T15:32:47.361Z,4.73
2019-02-27T15:35:21.925Z,4.70
2019-02-27T15:37:51.838Z,4.90
2019-02-27T15:40:28.520Z,4.93
2019-02-27T15:42:56.964Z,5.47
2019-02-27T15:45:28.906Z,4.90
2019-02-27T15:48:00.148Z,5.20
2019-02-27T15:50:31.500Z,4.53
2019-02-27T15:53:02.725Z,4.83
2019-02-27T15:55:35.253Z,4.70
2019-02-27T15:58:06.620Z,4.27
2019-02-27T16:00:38.228Z,4.40
2019-02-27T16:03:11.787Z,4.10
2019-02-27T16:05:42.557Z,4.40
2019-02-27T16:08:15.277Z,4.17
2019-02-27T16:10:54.572Z,4.33
2019-02-27T16:13:19.534Z,3.67
2019-02-27T16:15:50.932Z,3.80
2019-02-27T16:18:22.080Z,4.07
2019-02-27T16:20:53.428Z,3.80
2019-02-27T16:23:24.572Z,4.17
2019-02-27T16:25:56.640Z,3.70
2019-02-27T16:28:29.260Z,4.10
2019-02-27T16:31:05.796Z,4.10
2019-02-27T16:33:33.693Z,4.53
2019-02-27T16:36:05.102Z,4.03
2019-02-27T16:38:36.251Z,4.27
2019-02-27T16:41:07.612Z,4.77
2019-02-27T16:43:38.735Z,4.23
2019-02-27T16:46:10.123Z,4.50
2019-02-27T16:48:41.243Z,4.20
2019-02-27T16:51:12.581Z,4.60
2019-02-27T16:53:43.668Z,3.97
2019-02-27T16:56:14.844Z,4.30
2019-02-27T16:58:45.900Z,4.80
2019-02-27T17:01:18.868Z,4.50
2019-02-27T17:03:59.379Z,4.50
2019-02-27T17:06:23.356Z,5.07
2019-02-27T17:08:54.556Z,4.77
2019-02-27T17:11:25.961Z,4.90
2019-02-27T17:13:57.764Z,4.73
2019-02-27T17:16:29.468Z,4.13
2019-02-27T17:19:01.828Z,4.30
2019-02-27T17:21:33.740Z,4.17
2019-02-27T17:24:04.935Z,4.13
2019-02-27T17:26:39.149Z,4.60
2019-02-27T17:29:10.161Z,4.10
2019-02-27T17:31:49.078Z,3.80
2019-02-27T17:34:14.469Z,4.60
2019-02-27T17:36:46.229Z,4.77
2019-02-27T17:39:17.323Z,4.50
2019-02-27T17:41:48.613Z,5.20
2019-02-27T17:44:19.675Z,5.50
2019-02-27T17:46:51.712Z,5.27
2019-02-27T17:49:25.395Z,4.87
2019-02-27T17:51:56.886Z,4.10
2019-02-27T17:54:31.336Z,4.33
2019-02-27T17:57:01.097Z,4.27
2019-02-27T17:59:33.271Z,4.17
2019-02-27T18:02:04.571Z,5.23
2019-02-27T18:04:35.721Z,6.17
2019-02-27T18:07:09.162Z,6.80
2019-02-27T18:09:40.457Z,6.70
2019-02-27T18:12:11.868Z,6.10
2019-02-27T18:14:45.481Z,5.80
2019-02-27T18:17:15.999Z,6.70
2019-02-27T18:19:47.392Z,7.13
2019-02-27T18:22:21.257Z,7.80
2019-02-27T18:24:52.455Z,8.00
2019-02-27T18:27:25.397Z,8.33
2019-02-27T18:29:56.885Z,11.10
2019-02-27T18:32:28.179Z,10.90
2019-02-27T18:34:59.759Z,11.93
2019-02-27T18:37:31.009Z,11.50
2019-02-27T18:40:02.174Z,11.63
2019-02-27T18:42:33.898Z,12.47
2019-02-27T18:45:05.533Z,12.53
2019-02-27T18:47:37.113Z,11.13
2019-02-27T18:50:08.617Z,11.40
2019-02-27T18:52:39.831Z,12.73
2019-02-27T18:55:11.608Z,13.93
2019-02-27T18:57:45.922Z,13.53
2019-02-27T19:00:19.324Z,12.77
2019-02-27T19:02:54.113Z,13.77
2019-02-27T19:05:25.280Z,14.80
2019-02-27T19:07:56.615Z,14.50
2019-02-27T19:10:27.859Z,13.00
2019-02-27T19:12:59.934Z,14.10
2019-02-27T19:15:33.418Z,13.70
2019-02-27T19:18:06.524Z,14.70
2019-02-27T19:20:38.142Z,15.03
2019-02-27T19:23:09.828Z,16.90
2019-02-27T19:25:41.035Z,17.40
2019-02-27T19:28:12.551Z,18.67
2019-02-27T19:30:43.609Z,19.33
2019-02-27T19:33:14.909Z,19.03
2019-02-27T19:35:46.074Z,19.00
2019-02-27T19:38:17.365Z,19.63
2019-02-27T19:40:48.507Z,18.80
2019-02-27T19:43:21.138Z,21.07
2019-02-27T19:45:52.859Z,30.87
2019-02-27T19:48:26.302Z,37.57
2019-02-27T19:50:56.915Z,32.20
2019-02-27T19:53:28.127Z,24.90
2019-02-27T19:56:04.432Z,21.23
2019-02-27T19:58:35.707Z,20.27
2019-02-27T20:01:09.080Z,20.37
2019-02-27T20:03:39.893Z,20.10
2019-02-27T20:06:12.255Z,20.90
2019-02-27T20:08:45.321Z,19.97
2019-02-27T20:11:16.307Z,19.07
2019-02-27T20:13:47.679Z,19.60
2019-02-27T20:16:20.688Z,19.90
2019-02-27T20:18:55.110Z,19.37
2019-02-27T20:21:25.213Z,18.20
2019-02-27T20:24:01.164Z,18.43
2019-02-27T20:26:29.697Z,19.17
2019-02-27T20:29:04.162Z,19.40
2019-02-27T20:31:33.774Z,17.57
2019-02-27T20:34:25.542Z,19.43
2019-02-27T20:36:56.830Z,20.10
2019-02-27T20:39:28.109Z,21.20
2019-02-27T20:41:59.216Z,21.97
2019-02-27T20:44:30.381Z,19.37
2019-02-27T20:47:02.128Z,19.97
2019-02-27T20:49:33.275Z,20.67
2019-02-27T20:52:04.343Z,20.73
2019-02-27T20:54:35.579Z,20.33
2019-02-27T20:57:08.081Z,19.90
2019-02-27T20:59:39.561Z,17.97
2019-02-27T21:02:10.665Z,19.60
2019-02-27T21:04:41.996Z,19.30
2019-02-27T21:07:21.874Z,19.20
2019-02-27T21:09:46.028Z,20.07
2019-02-27T21:12:18.069Z,20.43
2019-02-27T21:14:49.319Z,20.90
2019-02-27T21:17:21.823Z,20.23
2019-02-27T21:19:54.297Z,20.93
2019-02-27T21:22:27.813Z,22.87
2019-02-27T21:24:58.333Z,22.93
2019-02-27T21:27:32.963Z,20.87
2019-02-27T21:30:02.573Z,20.33
2019-02-27T21:32:36.224Z,21.90
2019-02-27T21:35:08.225Z,20.73
2019-02-27T21:37:44.567Z,21.23
2019-02-27T21:40:13.272Z,21.33
2019-02-27T21:42:44.350Z,22.60
2019-02-27T21:45:16.585Z,18.93
2019-02-27T21:47:51.410Z,20.30
2019-02-27T21:50:20.721Z,20.80
2019-02-27T21:52:54.376Z,19.63
2019-02-27T21:55:24.860Z,20.57
2019-02-27T21:57:58.085Z,20.20
2019-02-27T22:00:30.733Z,21.73
2019-02-27T22:03:04.938Z,20.97
2019-02-27T22:05:42.517Z,19.90
2019-02-27T22:08:07.971Z,18.20
2019-02-27T22:10:39.311Z,19.60
2019-02-27T22:13:10.895Z,20.00
2019-02-27T22:15:42.410Z,19.80
2019-02-27T22:18:13.480Z,20.10
2019-02-27T22:20:44.800Z,21.20
2019-02-27T22:23:15.874Z,19.40
2019-02-27T22:25:47.303Z,20.50
2019-02-27T22:28:20.015Z,19.50
2019-02-27T22:30:51.648Z,19.30
2019-02-27T22:33:23.196Z,21.40
2019-02-27T22:35:54.560Z,20.00
2019-02-27T22:38:26.623Z,22.03
2019-02-27T22:40:58.265Z,20.97
2019-02-27T22:43:29.387Z,21.30
2019-02-27T22:46:00.685Z,22.57
2019-02-27T22:48:31.773Z,21.70
2019-02-27T22:51:03.168Z,21.07
2019-02-27T22:53:34.378Z,21.57
2019-02-27T22:56:06.249Z,20.90
2019-02-27T22:58:37.375Z,20.43
2019-02-27T23:01:15.888Z,21.13
2019-02-27T23:03:54.952Z,20.40
2019-02-27T23:06:26.094Z,21.87
2019-02-27T23:08:57.256Z,21.70
2019-02-27T23:11:28.585Z,20.70
2019-02-27T23:13:59.920Z,19.07
2019-02-27T23:16:31.485Z,20.27
2019-02-27T23:19:04.341Z,21.13
2019-02-27T23:21:35.925Z,20.40
2019-02-27T23:24:07.167Z,21.57
2019-02-27T23:26:40.161Z,22.17
2019-02-27T23:29:11.208Z,19.90
2019-02-27T23:31:42.670Z,20.13
2019-02-27T23:34:13.728Z,20.40
2019-02-27T23:36:46.178Z,19.73
2019-02-27T23:39:17.602Z,20.90
2019-02-27T23:41:49.080Z,22.13
2019-02-27T23:44:20.276Z,21.53
2019-02-27T23:46:57.250Z,21.23
2019-02-27T23:49:26.145Z,20.37
2019-02-27T23:51:57.658Z,21.10
2019-02-27T23:54:28.819Z,21.60
2019-02-27T23:57:00.114Z,21.30
2019-02-27T23:59:32.976Z,21.07
